Time;durP1;ratioP1;P1;durP2;ratioP2;P2;SDS_P1;SDS_P2;PMS_P1;PMS_P2;Temp;Humidity;BMP_temperature;BMP_pressure;BME280_temperature;BME280_humidity;BME280_pressure;Samples;Min_cycle;Max_cycle;Signal;HPM_P1;HPM_P2
2023/08/06 00:00:23;;;;;;;0.20;0.20;;;;;;;22.70;61.31;100020.59;5047182;28;19931;-76
2023/08/06 00:02:49;;;;;;;0.15;0.15;;;;;;;22.62;62.32;100025.97;5047361;28;20079;-75
2023/08/06 00:05:21;;;;;;;0.20;0.20;;;;;;;22.52;62.52;100013.34;5047460;28;20049;-74
2023/08/06 00:07:49;;;;;;;0.20;0.20;;;;;;;22.50;62.30;100015.69;5045437;28;20041;-75
2023/08/06 00:10:16;;;;;;;0.20;0.20;;;;;;;22.49;62.58;100019.63;5029882;28;20071;-76
2023/08/06 00:12:42;;;;;;;0.20;0.20;;;;;;;22.49;63.00;100018.78;5045834;28;20049;-75
2023/08/06 00:15:09;;;;;;;0.20;0.20;;;;;;;22.46;63.27;100017.47;5045226;28;20086;-71
2023/08/06 00:17:36;;;;;;;0.20;0.20;;;;;;;22.43;63.82;100012.63;5047359;28;20551;-71
2023/08/06 00:20:04;;;;;;;0.28;0.28;;;;;;;22.42;64.06;100013.78;5048442;28;20516;-69
2023/08/06 00:22:31;;;;;;;0.22;0.20;;;;;;;22.41;63.62;100019.72;5046265;28;20140;-71
2023/08/06 00:24:59;;;;;;;0.20;0.20;;;;;;;22.38;62.87;100022.03;5029311;28;20600;-70
2023/08/06 00:27:26;;;;;;;0.20;0.20;;;;;;;22.39;62.78;100020.06;5044687;28;20048;-70
2023/08/06 00:29:52;;;;;;;0.20;0.20;;;;;;;22.37;62.89;100014.84;5027322;28;20076;-69
2023/08/06 00:32:18;;;;;;;0.20;0.20;;;;;;;22.37;63.10;100023.19;5047160;28;20057;-70
2023/08/06 00:34:45;;;;;;;0.20;0.20;;;;;;;22.40;62.86;100013.31;5044946;28;20041;-69
2023/08/06 00:37:11;;;;;;;0.20;0.20;;;;;;;22.43;62.26;100023.75;5028807;28;20045;-70
2023/08/06 00:39:39;;;;;;;0.20;0.20;;;;;;;22.42;62.83;100022.13;5047978;28;20049;-70
2023/08/06 00:42:06;;;;;;;0.20;0.20;;;;;;;22.40;63.40;100027.25;5046810;28;20065;-68
2023/08/06 00:44:33;;;;;;;0.20;0.20;;;;;;;22.36;63.68;100024.34;5044252;28;20114;-69
2023/08/06 00:46:59;;;;;;;0.20;0.20;;;;;;;22.33;63.86;100024.25;5044219;28;20462;-69
2023/08/06 00:49:25;;;;;;;0.20;0.20;;;;;;;22.31;63.87;100029.34;5042936;28;20045;-69
2023/08/06 00:51:52;;;;;;;0.20;0.20;;;;;;;22.23;64.42;100018.00;5045989;28;20094;-69
2023/08/06 00:54:18;;;;;;;0.30;0.30;;;;;;;22.21;64.44;100022.28;5046396;28;20147;-70
2023/08/06 00:56:45;;;;;;;0.20;0.20;;;;;;;22.16;64.54;100019.72;5061058;28;20868;-70
2023/08/06 00:59:13;;;;;;;0.20;0.20;;;;;;;22.13;64.23;100026.00;5047905;28;20079;-69
2023/08/06 01:01:39;;;;;;;0.20;0.20;;;;;;;22.08;64.23;100032.59;5029048;28;20245;-70
2023/08/06 01:04:05;;;;;;;0.20;0.20;;;;;;;22.03;63.83;100039.22;5062427;28;20085;-69
2023/08/06 01:06:44;;;;;;;0.17;0.17;;;;;;;21.99;63.96;100031.91;5024896;28;20052;-69
2023/08/06 01:09:26;;;;;;;0.20;0.20;;;;;;;21.95;64.65;100032.59;5027336;28;20314;-69
2023/08/06 01:12:05;;;;;;;0.20;0.20;;;;;;;21.94;65.21;100032.97;5028179;28;20510;-69
2023/08/06 01:14:45;;;;;;;0.20;0.20;;;;;;;21.87;65.30;100033.53;5010953;28;20056;-69
2023/08/06 01:17:12;;;;;;;0.20;0.20;;;;;;;21.84;65.72;100033.41;5029515;28;20110;-69
2023/08/06 01:19:38;;;;;;;0.20;0.20;;;;;;;21.79;66.40;100029.69;5028124;28;20134;-71
2023/08/06 01:22:07;;;;;;;0.20;0.20;;;;;;;21.73;66.19;100027.47;5046325;28;20084;-70
2023/08/06 01:24:33;;;;;;;0.20;0.20;;;;;;;21.70;66.85;100028.97;5025779;28;20041;-69
2023/08/06 01:27:06;;;;;;;0.20;0.20;;;;;;;21.68;65.62;100034.88;5026058;28;20048;-70
2023/08/06 01:29:37;;;;;;;0.20;0.20;;;;;;;21.67;65.12;100029.66;5044938;28;20036;-69
2023/08/06 01:32:05;;;;;;;0.20;0.20;;;;;;;21.67;64.71;100030.47;5043184;28;20079;-70
2023/08/06 01:34:34;;;;;;;0.20;0.20;;;;;;;21.68;65.90;100034.06;5040654;28;20285;-69
2023/08/06 01:37:01;;;;;;;0.20;0.20;;;;;;;21.65;66.96;100038.34;5042614;28;20049;-68
2023/08/06 01:39:29;;;;;;;0.20;0.20;;;;;;;21.59;67.42;100041.66;5026244;28;20075;-70
2023/08/06 01:41:55;;;;;;;0.30;0.30;;;;;;;21.54;67.62;100048.25;5043291;28;20076;-70
2023/08/06 01:44:22;;;;;;;0.20;0.20;;;;;;;21.49;67.56;100046.50;5045242;28;20045;-69
2023/08/06 01:46:48;;;;;;;0.20;0.20;;;;;;;21.45;67.78;100041.97;5025638;28;20292;-69
2023/08/06 01:49:14;;;;;;;0.27;0.27;;;;;;;21.43;67.88;100045.09;5045132;28;20538;-70
2023/08/06 01:51:40;;;;;;;0.20;0.20;;;;;;;21.43;68.05;100041.50;5047173;28;20051;-70
2023/08/06 01:54:07;;;;;;;0.20;0.20;;;;;;;21.40;67.53;100043.00;5047661;28;20073;-69
2023/08/06 01:56:34;;;;;;;0.20;0.20;;;;;;;21.35;65.87;100034.88;5057298;28;20057;-70
2023/08/06 01:59:01;;;;;;;0.28;0.28;;;;;;;21.42;67.44;100051.81;5059180;28;20466;-70
2023/08/06 02:01:27;;;;;;;0.20;0.20;;;;;;;21.42;67.73;100051.00;5046778;28;20107;-70
2023/08/06 02:03:54;;;;;;;0.20;0.20;;;;;;;21.44;67.30;100057.84;5047558;28;20045;-74
2023/08/06 02:06:20;;;;;;;0.20;0.20;;;;;;;21.44;67.90;100060.63;5032060;28;20072;-75
2023/08/06 02:08:47;;;;;;;0.20;0.20;;;;;;;21.44;68.34;100060.63;5046792;28;20075;-70
2023/08/06 02:11:15;;;;;;;0.20;0.20;;;;;;;21.45;68.05;100059.47;5042262;28;20049;-69
2023/08/06 02:13:43;;;;;;;0.20;0.20;;;;;;;21.45;66.80;100062.25;5026022;28;20050;-70
2023/08/06 02:16:09;;;;;;;0.20;0.20;;;;;;;21.45;67.59;100062.25;5024072;28;20045;-69
2023/08/06 02:18:36;;;;;;;0.20;0.20;;;;;;;21.44;67.26;100062.59;5024926;28;20561;-70
2023/08/06 02:21:02;;;;;;;0.20;0.20;;;;;;;21.45;67.96;100062.25;5042018;28;20512;-69
2023/08/06 02:23:29;;;;;;;0.25;0.25;;;;;;;21.45;68.00;100065.03;5041891;28;20102;-69
2023/08/06 02:26:00;;;;;;;0.30;0.30;;;;;;;21.46;68.34;100063.06;5024689;28;20374;-69
2023/08/06 02:28:28;;;;;;;0.20;0.20;;;;;;;21.48;68.12;100067.16;5024731;28;20053;-69
2023/08/06 02:30:56;;;;;;;0.20;0.20;;;;;;;21.49;68.87;100068.75;5027715;28;20049;-70
2023/08/06 02:33:22;;;;;;;0.28;0.28;;;;;;;21.49;68.41;100067.94;5043606;28;20310;-68
2023/08/06 02:35:49;;;;;;;0.20;0.20;;;;;;;21.53;66.34;100057.75;5059819;28;20044;-70
2023/08/06 02:38:15;;;;;;;;;;;;;;;21.58;66.47;100065.91;5028136;28;20210;-70
2023/08/06 02:40:45;;;;;;;0.20;0.20;;;;;;;21.64;65.75;100067.28;5028660;28;19935;-69
2023/08/06 02:43:12;;;;;;;0.28;0.28;;;;;;;21.66;67.48;100067.00;5043048;28;20295;-68
2023/08/06 02:45:38;;;;;;;0.20;0.20;;;;;;;21.68;66.00;100068.25;5027833;28;20393;-70
2023/08/06 02:48:06;;;;;;;0.30;0.30;;;;;;;21.72;66.40;100067.59;5061496;28;20464;-70
2023/08/06 02:50:38;;;;;;;0.20;0.20;;;;;;;21.70;67.46;100069.88;5042318;28;20048;-69
2023/08/06 02:53:04;;;;;;;0.20;0.20;;;;;;;21.70;67.34;100069.88;5043934;28;20045;-71
2023/08/06 02:55:30;;;;;;;0.20;0.20;;;;;;;21.70;67.89;100072.66;5026187;28;20049;-77
2023/08/06 02:57:57;;;;;;;0.25;0.25;;;;;;;21.69;68.49;100069.06;5057094;28;20310;-75
2023/08/06 03:00:23;;;;;;;0.28;0.28;;;;;;;21.71;68.07;100069.53;5043222;28;20048;-77
2023/08/06 03:02:50;;;;;;;0.25;0.25;;;;;;;21.74;68.20;100071.63;5041337;28;20056;-75
2023/08/06 03:05:31;;;;;;;0.20;0.20;;;;;;;21.77;68.10;100067.34;5027304;28;20462;-75
2023/08/06 03:07:57;;;;;;;0.28;0.28;;;;;;;21.78;68.00;100067.03;5009277;28;20128;-75
2023/08/06 03:10:27;;;;;;;0.20;0.20;;;;;;;21.84;67.51;100069.56;5057801;28;20140;-75
2023/08/06 03:12:55;;;;;;;0.30;0.30;;;;;;;21.89;67.87;100063.78;5043650;28;20072;-75
2023/08/06 03:15:22;;;;;;;0.20;0.20;;;;;;;21.94;67.36;100067.16;5060368;28;20126;-76
2023/08/06 03:17:49;;;;;;;;;;;;;;;22.00;67.86;100066.91;5058118;28;20099;-75
2023/08/06 03:20:19;;;;;;;0.20;0.20;;;;;;;22.03;67.60;100071.81;5026372;28;19952;-76
2023/08/06 03:22:47;;;;;;;0.30;0.30;;;;;;;22.05;67.95;100070.28;5026777;28;20059;-75
2023/08/06 03:25:13;;;;;;;0.25;0.25;;;;;;;22.10;68.01;100063.69;5041478;28;20049;-75
2023/08/06 03:27:43;;;;;;;0.30;0.30;;;;;;;22.12;67.02;100061.38;5041482;28;20539;-75
2023/08/06 03:30:11;;;;;;;0.20;0.20;;;;;;;22.15;66.49;100057.09;5045510;28;20475;-75
2023/08/06 03:32:39;;;;;;;0.30;0.30;;;;;;;22.18;67.09;100060.00;5011182;28;20037;-75
2023/08/06 03:35:06;;;;;;;0.30;0.30;;;;;;;22.22;67.30;100065.66;5026154;28;20597;-74
2023/08/06 03:37:32;;;;;;;0.20;0.20;;;;;;;22.26;67.18;100058.25;5042069;28;20427;-75
2023/08/06 03:40:00;;;;;;;0.20;0.20;;;;;;;22.34;67.03;100071.22;5025907;28;20073;-76
2023/08/06 03:42:27;;;;;;;0.30;0.30;;;;;;;22.39;65.94;100068.22;5043503;28;20072;-76
2023/08/06 03:44:53;;;;;;;0.37;0.30;;;;;;;22.44;65.63;100071.94;5042152;28;20140;-75
2023/08/06 03:47:19;;;;;;;0.30;0.30;;;;;;;22.52;65.03;100071.03;5009986;28;20153;-75
2023/08/06 03:49:49;;;;;;;0.30;0.30;;;;;;;22.64;65.26;100071.00;5044802;28;20056;-75
2023/08/06 03:52:16;;;;;;;0.30;0.30;;;;;;;22.74;65.32;100069.72;5016355;28;20237;-75
2023/08/06 03:54:43;;;;;;;0.30;0.30;;;;;;;22.82;65.69;100072.75;5026856;28;20064;-76
2023/08/06 03:57:10;;;;;;;;;;;;;;;22.88;65.48;100074.94;5044382;28;20531;-75
2023/08/06 03:59:37;;;;;;;0.30;0.30;;;;;;;22.96;65.20;100067.59;5028470;28;20019;-75
2023/08/06 04:02:03;;;;;;;0.30;0.30;;;;;;;23.06;64.47;100066.28;5027764;28;20074;-76
2023/08/06 04:04:30;;;;;;;0.30;0.30;;;;;;;23.13;64.06;100060.09;5046764;28;20053;-75
2023/08/06 04:06:56;;;;;;;0.30;0.30;;;;;;;23.20;63.61;100051.94;5045356;28;20341;-76
2023/08/06 04:09:22;;;;;;;0.30;0.30;;;;;;;23.25;64.23;100057.25;5045873;28;20040;-76
2023/08/06 04:11:49;;;;;;;0.30;0.30;;;;;;;23.32;63.13;100054.69;5028644;28;20103;-75
2023/08/06 04:14:19;;;;;;;0.30;0.30;;;;;;;23.36;63.52;100055.59;5045885;28;20052;-76
2023/08/06 04:16:45;;;;;;;0.30;0.30;;;;;;;23.42;64.03;100063.75;5029420;28;20354;-76
2023/08/06 04:19:11;;;;;;;0.30;0.30;;;;;;;23.48;63.12;100060.31;5050189;28;20131;-75
2023/08/06 04:21:37;;;;;;;0.30;0.30;;;;;;;23.55;63.72;100051.31;5047250;28;20053;-71
2023/08/06 04:24:05;;;;;;;0.30;0.30;;;;;;;23.59;63.37;100040.25;5009259;28;20040;-70
2023/08/06 04:26:31;;;;;;;0.30;0.30;;;;;;;23.76;63.68;100053.06;4994536;28;20845;-71
2023/08/06 04:28:57;;;;;;;0.30;0.30;;;;;;;23.83;64.19;100052.47;5041063;28;20530;-71
2023/08/06 04:31:25;;;;;;;0.30;0.30;;;;;;;23.91;63.67;100054.25;5047705;28;20539;-70
2023/08/06 04:33:51;;;;;;;0.30;0.30;;;;;;;23.94;63.51;100051.56;5034074;28;20459;-71
2023/08/06 04:36:18;;;;;;;0.23;0.23;;;;;;;24.04;63.07;100052.19;5038295;28;20049;-75
2023/08/06 04:38:45;;;;;;;0.30;0.30;;;;;;;24.12;63.16;100050.38;5047627;28;20520;-69
2023/08/06 04:41:13;;;;;;;0.30;0.30;;;;;;;24.24;62.36;100052.28;5044001;28;20057;-70
2023/08/06 04:43:39;;;;;;;0.30;0.30;;;;;;;24.33;61.04;100059.31;5028172;28;20055;-76
2023/08/06 04:46:06;;;;;;;0.30;0.30;;;;;;;24.38;61.29;100055.44;5011798;28;20099;-71
2023/08/06 04:48:34;;;;;;;0.30;0.30;;;;;;;24.44;61.23;100048.38;5045212;28;20045;-71
2023/08/06 04:51:00;;;;;;;0.30;0.30;;;;;;;24.49;60.81;100056.47;5046282;28;20064;-71
2023/08/06 04:53:28;;;;;;;0.30;0.30;;;;;;;24.60;61.19;100059.53;5014596;28;20053;-76
2023/08/06 04:55:54;;;;;;;0.30;0.30;;;;;;;24.66;60.43;100046.06;5046955;28;20060;-70
2023/08/06 04:58:21;;;;;;;0.40;0.40;;;;;;;24.67;60.46;100050.50;5043876;28;20083;-76
2023/08/06 05:00:47;;;;;;;0.30;0.30;;;;;;;24.75;58.98;100052.25;5027506;28;20049;-70
2023/08/06 05:03:13;;;;;;;0.30;0.30;;;;;;;24.87;59.55;100054.16;5044761;28;20147;-70
2023/08/06 05:05:41;;;;;;;0.30;0.30;;;;;;;24.91;58.94;100045.84;5029024;28;20539;-78
2023/08/06 05:08:14;;;;;;;0.30;0.30;;;;;;;24.99;58.23;100047.63;5044925;28;20049;-76
2023/08/06 05:10:42;;;;;;;0.30;0.30;;;;;;;24.99;57.51;100047.63;5044382;28;20507;-76
2023/08/06 05:13:09;;;;;;;0.30;0.30;;;;;;;25.07;57.20;100054.19;5045203;28;20076;-75
2023/08/06 05:15:35;;;;;;;0.30;0.30;;;;;;;25.15;56.66;100046.75;5043674;28;20045;-76
2023/08/06 05:18:01;;;;;;;0.30;0.30;;;;;;;25.27;56.17;100040.19;5043959;28;21041;-76
2023/08/06 05:20:27;;;;;;;0.30;0.30;;;;;;;25.38;55.92;100041.19;5046697;28;20098;-75
2023/08/06 05:22:55;;;;;;;0.30;0.30;;;;;;;25.42;55.81;100047.66;5038500;28;20517;-75
2023/08/06 05:25:21;;;;;;;0.30;0.30;;;;;;;25.47;55.48;100038.97;5032748;28;20056;-76
2023/08/06 05:27:47;;;;;;;0.30;0.30;;;;;;;25.55;55.00;100042.72;5028252;28;20072;-75
2023/08/06 05:30:14;;;;;;;0.30;0.30;;;;;;;25.61;55.72;100034.84;5024216;28;20040;-74
2023/08/06 05:32:40;;;;;;;0.30;0.30;;;;;;;25.66;55.24;100031.72;5043953;28;20312;-76
2023/08/06 05:35:07;;;;;;;0.30;0.30;;;;;;;25.74;54.04;100038.25;5042434;28;20051;-76
2023/08/06 05:37:33;;;;;;;0.30;0.30;;;;;;;25.73;54.71;100031.88;5043840;28;20053;-71
2023/08/06 05:40:01;;;;;;;0.30;0.30;;;;;;;25.79;54.22;100037.16;5043826;28;20135;-72
2023/08/06 05:42:31;;;;;;;0.30;0.30;;;;;;;25.88;54.21;100035.72;5014627;28;20067;-75
2023/08/06 05:44:57;;;;;;;0.30;0.30;;;;;;;25.96;54.26;100031.03;5046591;28;20516;-75
2023/08/06 05:47:23;;;;;;;0.30;0.30;;;;;;;26.08;55.27;100032.03;5044511;28;20098;-75
2023/08/06 05:49:49;;;;;;;0.30;0.30;;;;;;;26.16;55.28;100039.38;5025407;28;20735;-75
2023/08/06 05:52:17;;;;;;;0.30;0.30;;;;;;;26.24;54.35;100034.72;5042018;28;20039;-70
2023/08/06 05:54:43;;;;;;;0.30;0.30;;;;;;;26.35;54.65;100026.47;5038937;28;20041;-71
2023/08/06 05:57:11;;;;;;;0.40;0.40;;;;;;;26.41;54.73;100030.56;5024477;28;20060;-74
2023/08/06 05:59:37;;;;;;;0.30;0.30;;;;;;;26.47;54.43;100037.47;5028317;28;20040;-74
2023/08/06 06:02:04;;;;;;;0.30;0.30;;;;;;;26.56;54.16;100035.19;5027473;28;20582;-75
2023/08/06 06:04:30;;;;;;;0.30;0.30;;;;;;;26.64;54.07;100035.31;5042630;28;20537;-75
2023/08/06 06:06:56;;;;;;;0.30;0.30;;;;;;;26.69;54.60;100029.34;5039805;28;20049;-70
2023/08/06 06:09:22;;;;;;;0.40;0.40;;;;;;;26.76;54.46;100027.44;5036822;28;20095;-75
2023/08/06 06:11:49;;;;;;;0.30;0.30;;;;;;;26.83;54.13;100020.31;4995890;28;20041;-75
2023/08/06 06:14:17;;;;;;;0.40;0.40;;;;;;;27.06;53.75;100031.44;5035249;28;20132;-74
2023/08/06 06:16:43;;;;;;;0.40;0.40;;;;;;;27.21;53.31;100035.25;5039857;28;20056;-76
2023/08/06 06:19:10;;;;;;;0.33;0.33;;;;;;;27.39;52.43;100020.59;5041033;28;20094;-76
2023/08/06 06:21:37;;;;;;;0.30;0.30;;;;;;;27.55;52.53;100023.19;5040247;28;20041;-75
2023/08/06 06:24:04;;;;;;;0.40;0.40;;;;;;;27.78;51.75;100019.41;5038663;28;20306;-76
2023/08/06 06:26:30;;;;;;;0.40;0.40;;;;;;;27.84;51.47;100023.44;5008465;28;20534;-74
2023/08/06 06:28:56;;;;;;;0.30;0.30;;;;;;;28.01;51.27;100016.38;5040560;28;20076;-75
2023/08/06 06:31:24;;;;;;;0.40;0.40;;;;;;;28.24;51.09;100010.56;5027841;28;20045;-75
2023/08/06 06:33:51;;;;;;;0.40;0.40;;;;;;;28.46;50.17;100019.13;5042075;28;20083;-75
2023/08/06 06:36:18;;;;;;;0.40;0.40;;;;;;;28.59;50.18;100022.41;5060773;28;20044;-74
2023/08/06 06:38:44;;;;;;;0.40;0.40;;;;;;;28.63;50.53;100014.81;5026811;28;20048;-75
2023/08/06 06:41:10;;;;;;;0.40;0.40;;;;;;;28.75;50.24;100005.22;5061170;28;20064;-76
2023/08/06 06:43:38;;;;;;;0.40;0.40;;;;;;;28.84;49.86;100013.31;5046207;28;20316;-75
2023/08/06 06:46:04;;;;;;;0.40;0.40;;;;;;;28.84;49.38;100018.94;5044421;28;20132;-75
2023/08/06 06:48:32;;;;;;;0.60;0.40;;;;;;;28.98;48.67;100012.59;5042668;28;20069;-77
2023/08/06 06:50:59;;;;;;;0.50;0.50;;;;;;;29.18;47.73;100013.03;5044983;28;20049;-75
2023/08/06 06:53:28;;;;;;;0.40;0.40;;;;;;;29.37;47.70;100003.44;5027397;28;20049;-74
2023/08/06 06:55:54;;;;;;;0.40;0.40;;;;;;;29.56;46.63;100002.28;5046622;28;20053;-75
2023/08/06 06:58:21;;;;;;;0.40;0.40;;;;;;;29.47;45.88;100009.53;5045655;28;20049;-74
2023/08/06 07:00:48;;;;;;;0.40;0.40;;;;;;;29.57;46.62;100003.91;5042857;28;20053;-69
2023/08/06 07:03:14;;;;;;;0.40;0.40;;;;;;;29.72;46.00;100010.31;5039450;28;20057;-70
2023/08/06 07:05:42;;;;;;;0.50;0.50;;;;;;;29.86;46.05;100001.09;5043870;28;20574;-70
2023/08/06 07:08:09;;;;;;;0.50;0.50;;;;;;;29.85;46.62;100002.31;5011445;28;20082;-71
2023/08/06 07:10:36;;;;;;;0.40;0.40;;;;;;;29.86;46.58;100006.72;5043309;28;20579;-69
2023/08/06 07:13:02;;;;;;;0.40;0.40;;;;;;;30.04;46.46;100000.31;5045001;28;20045;-70
2023/08/06 07:15:28;;;;;;;0.57;0.50;;;;;;;30.24;46.25;100000.69;5064452;28;20496;-76
2023/08/06 07:17:54;;;;;;;0.50;0.50;;;;;;;30.42;45.99;100002.66;5027184;28;20045;-75
2023/08/06 07:20:20;;;;;;;0.50;0.50;;;;;;;30.50;45.70;99997.81;5047461;28;20044;-74
2023/08/06 07:22:48;;;;;;;0.50;0.50;;;;;;;30.63;45.07;100001.00;5043904;28;20037;-69
2023/08/06 07:25:14;;;;;;;0.50;0.50;;;;;;;30.71;44.84;99988.50;5049077;28;20049;-70
2023/08/06 07:27:40;;;;;;;0.50;0.50;;;;;;;30.65;44.76;99998.56;5050478;28;20110;-70
2023/08/06 07:30:07;;;;;;;0.47;0.47;;;;;;;30.76;44.61;99999.34;5048801;28;20144;-70
2023/08/06 07:32:34;;;;;;;0.50;0.50;;;;;;;30.98;44.15;99990.78;5047819;28;20045;-68
2023/08/06 07:35:02;;;;;;;0.50;0.50;;;;;;;31.15;43.74;99993.94;5048479;28;20522;-70
2023/08/06 07:37:34;;;;;;;0.40;0.40;;;;;;;31.35;43.22;99997.03;5049500;28;20053;-75
2023/08/06 07:40:02;;;;;;;0.50;0.50;;;;;;;31.59;42.05;99991.66;5034397;28;20076;-74
2023/08/06 07:42:30;;;;;;;0.50;0.50;;;;;;;31.64;42.03;99991.19;5035515;28;20051;-75
2023/08/06 07:44:58;;;;;;;0.52;0.52;;;;;;;31.77;41.70;100000.00;5012570;28;20590;-74
2023/08/06 07:47:24;;;;;;;0.40;0.40;;;;;;;31.97;40.96;99988.94;5026198;28;20046;-76
2023/08/06 07:49:59;;;;;;;0.50;0.50;;;;;;;32.15;39.59;99993.59;4920230;28;10000476;-70
2023/08/06 07:52:25;;;;;;;0.50;0.50;;;;;;;32.49;38.98;99990.06;5016173;28;20359;-70
2023/08/06 07:54:52;;;;;;;0.50;0.50;;;;;;;32.60;38.02;99979.41;5000678;28;20548;-69
2023/08/06 07:57:19;;;;;;;0.50;0.50;;;;;;;32.64;38.35;99980.19;5024094;28;20063;-70
2023/08/06 07:59:45;;;;;;;0.50;0.50;;;;;;;32.77;37.85;99988.09;5018116;28;20054;-70
2023/08/06 08:02:11;;;;;;;0.50;0.50;;;;;;;32.49;38.16;99990.84;5004632;28;20049;-71
2023/08/06 08:04:38;;;;;;;0.50;0.50;;;;;;;32.53;38.73;99993.63;5019508;28;20045;-70
2023/08/06 08:07:05;;;;;;;0.50;0.50;;;;;;;32.49;38.11;99984.41;5023631;28;20042;-67
2023/08/06 08:09:31;;;;;;;;;;;;;;;32.53;38.12;99990.81;5004711;28;20061;-71
2023/08/06 08:12:00;;;;;;;0.50;0.50;;;;;;;32.73;37.43;99978.84;5025761;28;19925;-69
2023/08/06 08:14:28;;;;;;;0.60;0.60;;;;;;;32.84;37.57;99975.88;5007686;28;20049;-70
2023/08/06 08:16:55;;;;;;;0.60;0.60;;;;;;;32.75;38.33;99977.22;5003649;28;20548;-71
2023/08/06 08:19:21;;;;;;;0.50;0.50;;;;;;;32.91;37.45;99975.81;5025820;28;20057;-71
2023/08/06 08:21:47;;;;;;;0.50;0.50;;;;;;;32.66;37.79;99974.06;5007711;28;20048;-69
2023/08/06 08:24:13;;;;;;;0.50;0.50;;;;;;;32.63;37.93;99974.94;5025033;28;20418;-70
2023/08/06 08:26:39;;;;;;;0.50;0.50;;;;;;;32.84;37.41;99971.03;5027787;28;20122;-70
2023/08/06 08:29:06;;;;;;;0.50;0.50;;;;;;;32.88;36.84;99974.59;5010263;28;20267;-68
2023/08/06 08:31:38;;;;;;;0.60;0.60;;;;;;;33.02;37.15;99978.50;5027837;28;20049;-70
2023/08/06 08:34:05;;;;;;;0.60;0.60;;;;;;;33.23;36.88;99977.41;5028175;28;20093;-69
2023/08/06 08:36:31;;;;;;;0.60;0.60;;;;;;;33.48;36.61;99968.53;5030351;28;20501;-70
2023/08/06 08:38:58;;;;;;;0.60;0.60;;;;;;;33.70;36.33;99967.38;5013118;28;20048;-70
2023/08/06 08:41:24;;;;;;;0.57;0.57;;;;;;;34.02;35.79;99966.03;5044564;28;20107;-71
2023/08/06 08:43:51;;;;;;;0.60;0.60;;;;;;;33.78;36.48;99972.50;5026925;28;20057;-70
2023/08/06 08:46:18;;;;;;;0.60;0.60;;;;;;;33.82;36.67;99975.28;5028824;28;20072;-71
2023/08/06 08:48:46;;;;;;;0.60;0.60;;;;;;;34.14;35.86;99967.44;5026325;28;20136;-71
2023/08/06 08:51:13;;;;;;;0.60;0.60;;;;;;;34.23;35.73;99965.63;5026306;28;20065;-70
2023/08/06 08:53:39;;;;;;;;;;;;;;;34.16;35.23;99959.28;5012478;28;20117;-70
2023/08/06 08:56:05;;;;;;;;;;;;;;;34.20;35.09;99966.50;5028451;28;19929;-69
2023/08/06 08:58:31;;;;;;;0.60;0.60;;;;;;;34.26;35.13;99960.31;5036498;28;20373;-68
2023/08/06 09:00:58;;;;;;;0.60;0.60;;;;;;;34.69;35.07;99961.53;5045660;28;20049;-70
2023/08/06 09:03:25;;;;;;;0.60;0.60;;;;;;;34.93;34.75;99950.84;5045703;28;20048;-69
2023/08/06 09:05:57;;;;;;;0.60;0.60;;;;;;;35.09;34.40;99955.78;5043695;28;20048;-69
2023/08/06 09:08:31;;;;;;;0.60;0.60;;;;;;;35.20;33.81;99958.38;5046795;28;20139;-71
2023/08/06 09:10:57;;;;;;;0.60;0.60;;;;;;;35.27;33.87;99952.53;5044363;28;20052;-70
2023/08/06 09:13:24;;;;;;;0.70;0.70;;;;;;;35.30;34.03;99948.00;5046528;28;20056;-69
2023/08/06 09:15:50;;;;;;;;;;;;;;;35.45;33.52;99960.63;5048775;28;20090;-73
2023/08/06 09:18:25;;;;;;;0.70;0.70;;;;;;;35.04;34.04;99944.97;5045479;28;19924;-74
2023/08/06 09:20:53;;;;;;;0.60;0.60;;;;;;;34.70;34.47;99949.72;5044737;28;20053;-74
2023/08/06 09:23:20;;;;;;;0.60;0.60;;;;;;;34.70;34.67;99946.88;5027753;28;20049;-69
2023/08/06 09:25:47;;;;;;;0.70;0.70;;;;;;;34.64;34.16;99954.31;5045698;28;20055;-69
2023/08/06 09:28:13;;;;;;;0.70;0.70;;;;;;;34.60;34.54;99937.34;5045977;28;20053;-70
2023/08/06 09:30:40;;;;;;;0.77;0.77;;;;;;;34.55;34.44;99942.75;5045885;28;20132;-69
2023/08/06 09:33:14;;;;;;;0.80;0.80;;;;;;;34.30;34.70;99944.03;5045241;28;20045;-69
2023/08/06 09:35:40;;;;;;;0.80;0.80;;;;;;;34.41;34.73;99938.16;5029281;28;20052;-69
2023/08/06 09:38:09;;;;;;;0.70;0.70;;;;;;;34.54;34.78;99926.97;5043881;28;20424;-71
2023/08/06 09:40:36;;;;;;;0.70;0.70;;;;;;;34.67;34.62;99927.09;5043455;28;20061;-68
2023/08/06 09:43:03;;;;;;;0.70;0.70;;;;;;;34.90;34.33;99929.03;5048937;28;20049;-75
2023/08/06 09:45:34;;;;;;;0.70;0.70;;;;;;;35.04;33.62;99925.88;5044198;28;20048;-69
2023/08/06 09:48:03;;;;;;;0.70;0.70;;;;;;;35.15;33.62;99936.19;5041905;28;20048;-70
2023/08/06 09:50:31;;;;;;;0.80;0.80;;;;;;;35.43;33.58;99928.22;5024588;28;20048;-70
2023/08/06 09:52:59;;;;;;;0.80;0.80;;;;;;;35.75;33.15;99929.47;5047466;28;20076;-70
2023/08/06 09:55:27;;;;;;;0.80;0.80;;;;;;;35.82;33.12;99937.00;5010913;28;20111;-70
2023/08/06 09:57:53;;;;;;;0.80;0.80;;;;;;;36.02;32.50;99940.50;5045439;28;20094;-70
2023/08/06 10:00:20;;;;;;;0.80;0.80;;;;;;;35.96;32.67;99918.75;5044917;28;20041;-74
2023/08/06 10:02:48;;;;;;;0.70;0.70;;;;;;;36.10;32.60;99906.22;5012786;28;20508;-74
2023/08/06 10:05:15;;;;;;;0.80;0.80;;;;;;;36.10;32.54;99911.91;5023425;28;20041;-73
2023/08/06 10:07:43;;;;;;;0.80;0.80;;;;;;;35.97;32.41;99923.19;5021557;28;20068;-75
2023/08/06 10:10:12;;;;;;;0.80;0.80;;;;;;;36.44;31.83;99902.75;5036264;28;20086;-75
2023/08/06 10:12:45;;;;;;;0.75;0.75;;;;;;;37.11;31.22;99908.91;5014024;28;20107;-71
2023/08/06 10:15:16;;;;;;;0.80;0.80;;;;;;;37.32;30.63;99896.00;5046111;28;20073;-69
2023/08/06 10:17:50;;;;;;;0.70;0.70;;;;;;;37.66;30.57;99892.88;5030638;28;20056;-70
2023/08/06 10:20:16;;;;;;;0.75;0.75;;;;;;;38.10;29.49;99892.94;5044091;28;20209;-74
2023/08/06 10:22:44;;;;;;;0.80;0.80;;;;;;;38.13;29.70;99891.22;5043314;28;20076;-75
2023/08/06 10:25:10;;;;;;;0.70;0.70;;;;;;;38.36;28.92;99900.56;5042097;28;20052;-74
2023/08/06 10:27:52;;;;;;;;;;;;;;;38.23;29.24;99892.88;5044105;28;20049;-70
2023/08/06 10:30:23;;;;;;;0.70;0.70;;;;;;;37.80;29.89;99891.59;5026345;28;19924;-70
2023/08/06 10:32:51;;;;;;;0.70;0.70;;;;;;;37.88;29.62;99884.34;4695047;28;10000715;-75
2023/08/06 10:35:34;;;;;;;0.80;0.80;;;;;;;38.14;30.02;99872.84;5041552;28;20052;-68
2023/08/06 10:38:05;;;;;;;0.88;0.88;;;;;;;38.53;29.37;99872.63;5041987;28;20107;-75
2023/08/06 10:40:32;;;;;;;0.90;0.90;;;;;;;38.81;28.96;99876.41;5030975;28;20512;-69
2023/08/06 10:43:00;;;;;;;0.90;0.90;;;;;;;39.09;27.79;99881.44;5052622;28;20049;-69
2023/08/06 10:45:28;;;;;;;1.00;1.00;;;;;;;39.40;27.43;99875.66;5022639;28;20143;-68
2023/08/06 10:47:56;;;;;;;1.00;1.00;;;;;;;39.25;28.99;99877.53;5041261;28;20041;-70
2023/08/06 10:50:23;;;;;;;1.10;1.10;;;;;;;39.16;28.74;99875.44;5039187;28;20507;-68
2023/08/06 10:52:50;;;;;;;1.10;1.10;;;;;;;39.18;28.47;99880.66;5005288;28;20049;-69
2023/08/06 10:55:23;;;;;;;1.17;1.17;;;;;;;39.22;27.83;99872.75;5018769;28;20045;-68
2023/08/06 10:57:50;;;;;;;1.10;1.10;;;;;;;39.22;28.76;99878.47;5049629;28;20076;-70
2023/08/06 11:00:17;;;;;;;;;;;;;;;39.68;28.57;99869.97;5050753;28;20561;-69
2023/08/06 11:02:44;;;;;;;1.20;1.20;;;;;;;39.53;27.42;99872.66;5048861;28;19925;-69
2023/08/06 11:05:12;;;;;;;1.30;1.20;;;;;;;39.59;27.86;99869.97;5041619;28;20140;-74
2023/08/06 11:07:39;;;;;;;1.30;1.20;;;;;;;40.06;27.46;99867.91;5041596;28;20068;-74
2023/08/06 11:10:07;;;;;;;1.33;1.23;;;;;;;39.54;28.06;99868.53;5033879;28;20074;-73
2023/08/06 11:12:37;;;;;;;1.30;1.20;;;;;;;39.77;27.67;99872.03;5048827;28;20044;-75
2023/08/06 11:15:04;;;;;;;1.30;1.20;;;;;;;39.54;27.46;99864.88;5048199;28;20182;-75
2023/08/06 11:17:34;;;;;;;1.40;1.30;;;;;;;39.56;27.64;99868.84;5046359;28;20068;-69
2023/08/06 11:20:02;;;;;;;1.40;1.30;;;;;;;39.78;27.14;99873.63;5024624;28;20075;-69
2023/08/06 11:22:31;;;;;;;1.40;1.30;;;;;;;39.79;27.30;99872.34;5047623;28;20048;-70
2023/08/06 11:24:57;;;;;;;1.40;1.30;;;;;;;40.35;26.70;99865.81;5049570;28;20060;-69
2023/08/06 11:27:25;;;;;;;;;;;;;;;40.76;26.18;99854.06;5032972;28;20045;-70
2023/08/06 11:29:53;;;;;;;1.40;1.30;;;;;;;41.12;25.34;99855.13;5049921;28;19925;-70